Terminal Aerodrome Forecast
Issued by NWS

Home | Current Version | Previous Version | Text Only | Print | Product List | Glossary On
Versions: 1 2 3 4 5 6 7 8 9 10 11 12 13 14 15
826
FTUS43 KTOP 201123
TAFFOE
TAF
KFOE 201123Z 2012/2112 18010KT P6SM BKN010
     FM210000 13005KT P6SM SCT006
     FM210200 13005KT 5SM BR SCT006
     FM210400 12005KT 2SM BR BKN004=

USA.gov is the U.S. government's official web portal to all federal, state and local government web resources and services.